Time;durP1;ratioP1;P1;durP2;ratioP2;P2;SDS_P1;SDS_P2;PMS_P1;PMS_P2;Temp;Humidity;BMP_temperature;BMP_pressure;BME280_temperature;BME280_humidity;BME280_pressure;Samples;Min_cycle;Max_cycle;Signal;HPM_P1;HPM_P2
2023/01/13 01:06:27;;;;;;;62.00;19.20;;;;;;;-5.54;100.00;101697.04;105636;1291;600929;-79
2023/01/13 01:09:15;;;;;;;87.10;22.90;;;;;;;-5.43;100.00;101697.96;108661;1262;63343;-80
2023/01/13 01:12:02;;;;;;;95.00;23.10;;;;;;;-5.36;100.00;101699.64;108688;1262;62392;-75
2023/01/13 01:14:50;;;;;;;70.50;19.20;;;;;;;-5.31;100.00;101700.35;108622;1262;74544;-80
2023/01/13 01:17:37;;;;;;;83.40;20.40;;;;;;;-5.22;100.00;101694.52;108605;1263;71112;-75
2023/01/13 01:20:25;;;;;;;104.30;27.50;;;;;;;-5.13;100.00;101691.09;108545;1261;200958;-80
2023/01/13 01:23:12;;;;;;;81.70;22.30;;;;;;;-5.06;100.00;101684.73;108669;1262;61538;-80
2023/01/13 01:26:01;;;;;;;60.80;16.60;;;;;;;-5.01;100.00;101678.86;108752;1262;61440;-79
2023/01/13 01:28:48;;;;;;;42.60;14.50;;;;;;;-4.97;100.00;101676.18;108744;1261;74022;-80
2023/01/13 01:31:36;;;;;;;52.40;14.80;;;;;;;-4.94;100.00;101674.67;108681;1260;70848;-80
2023/01/13 01:34:23;;;;;;;31.80;10.00;;;;;;;-4.93;100.00;101667.66;108777;1262;74976;-76
2023/01/13 01:37:11;;;;;;;28.90;9.70;;;;;;;-4.84;100.00;101666.52;108730;1261;60787;-80
2023/01/13 01:39:58;;;;;;;34.50;12.40;;;;;;;-4.81;100.00;101663.17;108788;1261;62308;-79
2023/01/13 01:45:52;;;;;;;29.60;10.50;;;;;;;-4.69;100.00;101664.07;108692;1262;71019;-80
2023/01/13 01:48:40;;;;;;;36.80;11.20;;;;;;;-4.68;100.00;101667.15;108756;1261;74826;-76
2023/01/13 01:51:28;;;;;;;28.60;10.10;;;;;;;-4.70;100.00;101666.96;108636;1261;61658;-75
2023/01/13 01:54:26;;;;;;;30.20;11.40;;;;;;;-4.70;100.00;101665.91;108730;1262;60282;-80
2023/01/13 01:57:17;;;;;;;30.10;11.20;;;;;;;-4.69;100.00;101661.44;108786;1265;75226;-80
2023/01/13 02:00:05;;;;;;;29.80;10.30;;;;;;;-4.69;100.00;101656.03;108713;1261;71417;-80
2023/01/13 02:02:58;;;;;;;33.70;11.20;;;;;;;-4.68;100.00;101654.55;108751;1263;74954;-76
2023/01/13 02:05:45;;;;;;;40.30;13.80;;;;;;;-4.70;100.00;101643.33;108695;1262;61146;-80
2023/01/13 02:08:33;;;;;;;41.10;14.20;;;;;;;-4.66;100.00;101643.80;108691;1262;63389;-80
2023/01/13 02:14:35;;;;;;;68.20;18.50;;;;;;;-4.60;100.00;101642.14;108704;1262;70408;-80
2023/01/13 02:18:11;;;;;;;62.60;17.30;;;;;;;-4.58;100.00;101648.79;108642;1262;75051;-80
2023/01/13 02:21:13;;;;;;;83.00;20.70;;;;;;;-4.53;100.00;101651.41;108616;1262;61308;-75
2023/01/13 02:27:51;;;;;;;98.60;23.60;;;;;;;-4.59;100.00;101661.48;108711;1266;75318;-79
2023/01/13 02:34:08;;;;;;;102.70;25.10;;;;;;;-4.65;100.00;101656.73;109017;1256;74859;-80
2023/01/13 02:36:58;;;;;;;112.20;25.30;;;;;;;-4.65;100.00;101650.48;108912;1257;60361;-75
2023/01/13 02:40:00;;;;;;;111.50;24.70;;;;;;;-4.60;100.00;101642.51;108907;1257;61374;-79
2023/01/13 02:46:22;;;;;;;110.80;23.40;;;;;;;-4.56;100.00;101642.17;108914;1257;70783;-75
2023/01/13 02:49:11;;;;;;;119.50;25.20;;;;;;;-4.56;100.00;101639.94;108891;1257;72277;-75
2023/01/13 02:52:09;;;;;;;124.60;28.30;;;;;;;-4.56;100.00;101642.67;108930;1254;60603;-79
2023/01/13 02:55:00;;;;;;;96.70;24.40;;;;;;;-4.60;100.00;101653.00;108901;1256;62847;-80
2023/01/13 02:57:47;;;;;;;103.40;25.80;;;;;;;-4.60;100.00;101658.37;108949;1256;73954;-80
2023/01/13 03:00:35;;;;;;;120.10;26.50;;;;;;;-4.58;100.00;101661.52;109072;1254;70846;-79
2023/01/13 03:03:23;;;;;;;103.40;24.20;;;;;;;-4.57;100.00;101659.30;108934;1257;74793;-75
2023/01/13 03:06:29;;;;;;;91.70;21.20;;;;;;;-4.58;100.00;101655.63;108925;1256;60813;-80
2023/01/13 03:09:38;;;;;;;90.10;21.20;;;;;;;-4.53;100.00;101653.77;109016;1259;60871;-75
2023/01/13 03:12:57;;;;;;;100.60;25.30;;;;;;;-4.49;100.00;101651.02;108967;1256;75189;-75
2023/01/13 03:15:47;;;;;;;112.30;25.30;;;;;;;-4.48;100.00;101654.39;108928;1257;70912;-80
2023/01/13 03:18:45;;;;;;;117.60;27.20;;;;;;;-4.49;100.00;101651.11;108994;1254;74974;-75
2023/01/13 03:21:36;;;;;;;98.10;25.20;;;;;;;-4.50;100.00;101655.30;108877;1262;62220;-80
2023/01/13 03:24:38;;;;;;;111.80;26.00;;;;;;;-4.50;100.00;101651.73;109039;1257;63287;-75
2023/01/13 03:27:29;;;;;;;108.80;25.40;;;;;;;-4.53;100.00;101656.05;108966;1254;75184;-79
2023/01/13 03:30:28;;;;;;;103.60;24.90;;;;;;;-4.55;100.00;101659.63;108993;1257;68825;-76
2023/01/13 03:33:17;;;;;;;90.30;25.90;;;;;;;-4.58;100.00;101659.59;109138;1257;74385;-80
2023/01/13 03:36:07;;;;;;;92.40;26.40;;;;;;;-4.57;100.00;101656.77;108955;1261;62131;-80
2023/01/13 03:39:04;;;;;;;102.70;24.90;;;;;;;-4.56;100.00;101648.48;108979;1256;62785;-75
2023/01/13 03:41:56;;;;;;;86.80;22.30;;;;;;;-4.55;100.00;101645.92;109024;1259;74246;-80
2023/01/13 03:44:51;;;;;;;90.60;23.00;;;;;;;-4.52;100.00;101641.55;108938;1257;71107;-79
2023/01/13 03:47:40;;;;;;;74.40;22.50;;;;;;;-4.51;100.00;101640.73;108941;1258;73867;-76
2023/01/13 03:50:30;;;;;;;91.00;23.00;;;;;;;-4.48;100.00;101646.16;109032;1256;60527;-75
2023/01/13 03:53:21;;;;;;;90.40;22.10;;;;;;;-4.43;100.00;101643.67;109040;1256;62507;-75
2023/01/13 03:56:38;;;;;;;90.60;23.90;;;;;;;-4.45;100.00;101641.11;109015;1257;75180;-75
2023/01/13 07:10:13;;;;;;;100.20;30.70;;;;;;;-5.70;100.00;101693.00;105687;1291;600927;-76
2023/01/13 07:16:07;;;;;;;173.90;36.10;;;;;;;-5.41;100.00;101695.94;108254;1267;60242;-76
2023/01/13 07:18:55;;;;;;;209.20;47.50;;;;;;;-5.32;100.00;101697.59;108309;1267;74439;-76
2023/01/13 07:21:42;;;;;;;144.90;38.80;;;;;;;-5.25;100.00;101696.90;108776;1260;70871;-76
2023/01/13 07:24:30;;;;;;;111.40;32.60;;;;;;;-5.17;100.00;101695.84;108848;1257;76329;-76
2023/01/13 07:27:17;;;;;;;84.00;22.50;;;;;;;-5.12;100.00;101699.61;108834;1260;60526;-76
2023/01/13 07:30:06;;;;;;;57.20;22.90;;;;;;;-5.08;100.00;101707.98;108836;1258;62522;-76
2023/01/13 07:32:54;;;;;;;63.50;24.10;;;;;;;-5.02;100.00;101708.80;108810;1257;72599;-76
2023/01/13 07:35:41;;;;;;;88.40;26.60;;;;;;;-4.96;100.00;101708.39;108771;1261;71338;-76
2023/01/13 07:38:29;;;;;;;67.50;21.00;;;;;;;-4.89;100.00;101707.61;108839;1257;73202;-76
2023/01/13 07:44:22;;;;;;;75.30;23.20;;;;;;;-4.83;100.00;101706.65;108836;1258;61265;-75
2023/01/13 07:47:10;;;;;;;79.90;25.20;;;;;;;-4.78;100.00;101712.95;108830;1261;75104;-75
2023/01/13 07:49:57;;;;;;;85.50;27.50;;;;;;;-4.75;100.00;101711.05;108865;1258;70869;-76
2023/01/13 07:52:45;;;;;;;75.80;25.00;;;;;;;-4.61;100.00;101714.51;108765;1263;74849;-75
2023/01/13 07:55:32;;;;;;;50.50;19.00;;;;;;;-4.54;100.00;101709.85;108808;1263;60661;-75
2023/01/13 07:58:20;;;;;;;51.90;18.50;;;;;;;-4.42;100.00;101713.13;108842;1258;61190;-76
2023/01/13 08:01:09;;;;;;;61.20;23.10;;;;;;;-4.36;100.00;101716.98;108812;1259;75410;-75
2023/01/13 08:03:57;;;;;;;49.90;19.00;;;;;;;-4.30;100.00;101712.88;108789;1257;70066;-76
2023/01/13 08:06:45;;;;;;;60.60;21.80;;;;;;;-4.27;100.00;101712.76;108808;1258;74901;-75
2023/01/13 08:09:33;;;;;;;70.10;23.20;;;;;;;-4.28;100.00;101709.10;108733;1257;62369;-76
2023/01/13 08:15:39;;;;;;;67.20;24.20;;;;;;;-4.22;100.00;101696.48;108847;1259;75381;-75
2023/01/13 08:18:26;;;;;;;54.70;19.60;;;;;;;-4.18;100.00;101701.40;108869;1258;70353;-76
2023/01/13 08:21:14;;;;;;;48.30;19.20;;;;;;;-4.14;100.00;101701.70;108809;1259;73446;-75
2023/01/13 08:24:02;;;;;;;54.50;19.20;;;;;;;-4.07;100.00;101704.55;108798;1258;63168;-76
2023/01/13 08:26:49;;;;;;;53.40;20.30;;;;;;;-4.05;100.00;101702.45;108783;1258;62526;-76
2023/01/13 08:29:36;;;;;;;35.50;16.10;;;;;;;-4.02;100.00;101701.18;108880;1259;74235;-76
2023/01/13 08:32:24;;;;;;;31.50;13.10;;;;;;;-3.99;100.00;101705.65;108849;1257;71370;-76
2023/01/13 08:35:12;;;;;;;27.30;12.30;;;;;;;-3.99;100.00;101707.67;108793;1260;74577;-76
2023/01/13 08:37:59;;;;;;;31.10;12.90;;;;;;;-4.01;100.00;101710.56;108831;1260;60583;-75
2023/01/13 08:40:47;;;;;;;33.30;13.80;;;;;;;-4.00;100.00;101705.43;108770;1263;61299;-76
2023/01/13 08:43:34;;;;;;;39.50;14.70;;;;;;;-3.96;100.00;101701.00;108798;1262;74648;-76
2023/01/13 08:46:21;;;;;;;44.90;16.50;;;;;;;-3.92;100.00;101700.20;108818;1258;70740;-76
2023/01/13 08:49:09;;;;;;;47.00;15.60;;;;;;;-3.90;100.00;101697.08;108854;1257;75305;-76
2023/01/13 08:51:56;;;;;;;47.50;16.80;;;;;;;-3.86;100.00;101694.30;108754;1263;61849;-75
2023/01/13 08:54:44;;;;;;;46.70;17.10;;;;;;;-3.75;100.00;101683.41;108762;1258;61304;-75
2023/01/13 08:57:31;;;;;;;45.20;18.70;;;;;;;-3.68;100.00;101683.77;108798;1257;75338;-76
2023/01/13 09:00:19;;;;;;;54.40;18.30;;;;;;;-3.66;100.00;101679.06;108823;1257;69851;-75
2023/01/13 09:03:07;;;;;;;44.90;18.00;;;;;;;-3.62;100.00;101672.26;108777;1260;75970;-76
2023/01/13 09:05:54;;;;;;;60.10;19.00;;;;;;;-3.56;100.00;101668.59;108745;1258;60717;-76
2023/01/13 09:08:42;;;;;;;75.60;21.30;;;;;;;-3.50;100.00;101660.52;108790;1259;62529;-77
2023/01/13 09:14:39;;;;;;;88.30;24.50;;;;;;;-3.33;100.00;101658.61;108863;1261;69995;-76
2023/01/13 09:17:27;;;;;;;63.70;18.90;;;;;;;-3.29;100.00;101652.68;108792;1260;73902;-76
2023/01/13 09:20:14;;;;;;;78.90;23.70;;;;;;;-3.26;100.00;101646.45;108803;1260;61706;-76
2023/01/13 09:23:03;;;;;;;71.30;20.50;;;;;;;-3.23;100.00;101650.73;108850;1257;60199;-76
2023/01/13 09:25:51;;;;;;;101.00;27.20;;;;;;;-3.15;100.00;101644.26;108857;1257;75126;-77
2023/01/13 09:28:38;;;;;;;124.60;32.10;;;;;;;-3.09;100.00;101648.73;108856;1259;71715;-76
2023/01/13 09:31:27;;;;;;;116.30;32.40;;;;;;;-3.04;100.00;101651.09;108871;1259;73774;-77
2023/01/13 09:37:23;;;;;;;79.50;26.00;;;;;;;-3.00;100.00;101641.10;108800;1257;62197;-76
2023/01/13 09:40:21;;;;;;;101.30;30.00;;;;;;;-2.91;100.00;101638.37;108834;1257;73902;-76
2023/01/13 09:46:45;;;;;;;51.00;18.90;;;;;;;-2.87;100.00;101634.48;108732;1257;74938;-76
2023/01/13 09:49:36;;;;;;;50.80;18.70;;;;;;;-2.86;100.00;101626.96;108893;1259;60454;-76
2023/01/13 09:52:24;;;;;;;58.70;22.20;;;;;;;-2.84;100.00;101624.58;108798;1257;62679;-76
2023/01/13 09:55:15;;;;;;;58.10;20.90;;;;;;;-2.79;100.00;101623.89;108929;1257;72785;-76
2023/01/13 09:58:11;;;;;;;59.90;21.20;;;;;;;-2.76;100.00;101623.02;108941;1262;69058;-76
2023/01/13 13:07:29;;;;;;;14.80;7.30;;;;;;;-3.22;100.00;101582.10;105595;1295;600969;-76
2023/01/13 13:10:23;;;;;;;23.20;8.50;;;;;;;-3.19;100.00;101584.41;108280;1268;62782;-77
2023/01/13 13:13:41;;;;;;;23.20;11.00;;;;;;;-3.09;100.00;101589.57;108341;1269;62183;-76
2023/01/13 13:16:29;;;;;;;17.40;7.30;;;;;;;-2.98;100.00;101591.34;108240;1267;74713;-77
2023/01/13 13:19:16;;;;;;;11.20;6.50;;;;;;;-2.86;100.00;101593.41;108281;1268;71113;-76
2023/01/13 13:22:15;;;;;;;14.40;6.00;;;;;;;-2.82;100.00;101589.54;108302;1264;172062;-76
2023/01/13 13:25:03;;;;;;;12.70;6.30;;;;;;;-2.76;100.00;101594.10;108519;1265;60752;-77
2023/01/13 13:28:00;;;;;;;15.40;5.70;;;;;;;-2.69;100.00;101600.67;108501;1265;61133;-77
2023/01/13 13:30:52;;;;;;;10.10;5.20;;;;;;;-2.68;100.00;101600.40;108479;1270;72190;-77
2023/01/13 13:33:49;;;;;;;16.00;9.10;;;;;;;-2.68;100.00;101598.28;108434;1264;69897;-77
2023/01/13 13:36:45;;;;;;;15.20;6.10;;;;;;;-2.72;100.00;101600.27;108462;1264;73765;-76
2023/01/13 13:48:57;;;;;;;11.80;5.40;;;;;;;-2.82;100.00;101600.59;108391;1264;71121;-77
2023/01/13 13:51:51;;;;;;;12.90;6.10;;;;;;;-2.83;100.00;101605.73;108539;1264;74839;-76
2023/01/13 13:54:41;;;;;;;15.30;7.20;;;;;;;-2.82;100.00;101609.41;108491;1264;61979;-76
2023/01/13 13:57:37;;;;;;;24.50;10.00;;;;;;;-2.81;100.00;101610.11;108378;1264;62479;-76
2023/01/13 14:00:31;;;;;;;19.00;9.10;;;;;;;-2.83;100.00;101610.50;108483;1264;74040;-76
2023/01/13 14:03:34;;;;;;;16.60;8.10;;;;;;;-2.87;100.00;101609.86;108613;1264;69980;-76
2023/01/13 14:06:26;;;;;;;29.90;11.40;;;;;;;-2.91;100.00;101609.78;108391;1264;74930;-76
2023/01/13 14:09:16;;;;;;;25.10;10.10;;;;;;;-2.95;100.00;101609.49;108484;1263;61512;-76
2023/01/13 14:12:07;;;;;;;17.50;8.00;;;;;;;-2.99;100.00;101605.84;108570;1264;61273;-76
2023/01/13 14:14:56;;;;;;;16.70;8.20;;;;;;;-3.00;100.00;101609.92;108449;1264;75919;-75
2023/01/13 14:17:43;;;;;;;21.50;8.70;;;;;;;-3.04;100.00;101609.38;108585;1263;69641;-76
2023/01/13 14:20:33;;;;;;;18.40;7.40;;;;;;;-3.01;100.00;101605.34;108467;1264;73414;-75
2023/01/13 14:23:25;;;;;;;21.10;8.80;;;;;;;-3.04;100.00;101601.91;108743;1261;62151;-76
2023/01/13 14:26:13;;;;;;;23.30;9.90;;;;;;;-3.07;100.00;101604.31;108765;1260;61017;-76
2023/01/13 14:29:01;;;;;;;31.30;12.90;;;;;;;-3.10;100.00;101606.91;108761;1260;73431;-75
2023/01/13 14:31:49;;;;;;;30.40;12.50;;;;;;;-3.12;100.00;101603.80;108787;1261;70254;-76
2023/01/13 14:34:36;;;;;;;32.90;13.20;;;;;;;-3.15;100.00;101602.52;108762;1261;74792;-76
2023/01/13 14:37:24;;;;;;;36.20;16.10;;;;;;;-3.16;100.00;101601.77;108618;1261;62518;-75
2023/01/13 14:40:38;;;;;;;63.70;21.10;;;;;;;-3.20;100.00;101603.23;109017;1254;62467;-75
2023/01/13 14:43:26;;;;;;;35.00;12.70;;;;;;;-3.23;100.00;101600.00;108980;1254;74799;-76
2023/01/13 14:46:14;;;;;;;46.30;16.00;;;;;;;-3.24;100.00;101597.06;109002;1256;70907;-76
2023/01/13 14:49:01;;;;;;;20.90;8.60;;;;;;;-3.25;100.00;101593.95;108995;1257;74707;-82
2023/01/13 14:51:49;;;;;;;20.00;9.30;;;;;;;-3.32;100.00;101600.17;109080;1254;60455;-82
2023/01/13 14:54:40;;;;;;;30.00;11.40;;;;;;;-3.37;100.00;101603.58;108884;1254;61630;-82
2023/01/13 14:57:31;;;;;;;39.40;14.50;;;;;;;-3.44;100.00;101607.69;108904;1257;75067;-82
2023/01/13 15:00:23;;;;;;;54.10;18.50;;;;;;;-3.51;100.00;101606.55;108954;1254;70239;-82
2023/01/13 15:03:15;;;;;;;51.00;20.30;;;;;;;-3.56;100.00;101603.73;108963;1254;74724;-82
2023/01/13 15:06:21;;;;;;;64.20;21.90;;;;;;;-3.59;100.00;101601.20;108909;1254;61790;-82
2023/01/13 15:09:12;;;;;;;44.90;17.10;;;;;;;-3.63;100.00;101595.09;108959;1254;61466;-81
2023/01/13 15:12:11;;;;;;;52.30;17.10;;;;;;;-3.69;100.00;101596.16;108911;1257;75185;-81
2023/01/13 15:14:58;;;;;;;39.50;15.10;;;;;;;-3.72;100.00;101594.00;109025;1254;71126;-82
2023/01/13 15:17:46;;;;;;;30.30;11.80;;;;;;;-3.76;100.00;101597.06;109023;1254;73666;-81
2023/01/13 15:20:33;;;;;;;33.30;12.20;;;;;;;-3.81;100.00;101591.58;109034;1257;60683;-82
2023/01/13 15:23:21;;;;;;;33.20;11.40;;;;;;;-3.86;100.00;101594.05;108998;1257;60565;-82
2023/01/13 15:26:26;;;;;;;28.20;9.50;;;;;;;-3.96;100.00;101596.21;108895;1257;72867;-81
2023/01/13 15:29:16;;;;;;;26.50;10.20;;;;;;;-4.01;100.00;101603.72;108969;1257;70274;-81
2023/01/13 15:32:04;;;;;;;31.00;10.80;;;;;;;-4.02;100.00;101602.02;108724;1257;74888;-81
2023/01/13 15:34:52;;;;;;;30.20;11.10;;;;;;;-4.04;100.00;101603.33;108983;1257;60206;-82
2023/01/13 15:37:40;;;;;;;29.40;11.40;;;;;;;-4.09;100.00;101604.70;109017;1256;61355;-81
2023/01/13 15:40:31;;;;;;;30.60;12.10;;;;;;;-4.10;100.00;101603.89;108910;1255;73986;-81
2023/01/13 15:46:38;;;;;;;39.10;13.80;;;;;;;-4.15;100.00;101597.28;109041;1257;74799;-82
2023/01/13 15:49:35;;;;;;;54.60;17.80;;;;;;;-4.22;100.00;101598.58;109046;1254;60531;-80
2023/01/13 15:52:24;;;;;;;44.00;18.20;;;;;;;-4.31;100.00;101602.88;108906;1256;63870;-82
2023/01/13 15:55:12;;;;;;;47.00;18.40;;;;;;;-4.37;100.00;101597.53;108962;1254;75146;-82
2023/01/13 15:58:00;;;;;;;39.30;15.40;;;;;;;-4.41;100.00;101602.23;109177;1254;69953;-81
2023/01/13 19:07:35;;;;;;;27.80;9.80;;;;;;;-4.13;100.00;101596.92;105835;1292;601486;-80
2023/01/13 19:10:23;;;;;;;33.40;11.80;;;;;;;-4.03;100.00;101601.41;108298;1266;63966;-83
2023/01/13 19:13:10;;;;;;;39.50;15.00;;;;;;;-3.96;100.00;101602.16;108295;1267;62713;-83
2023/01/13 19:16:03;;;;;;;27.00;11.60;;;;;;;-3.80;100.00;101606.98;108312;1267;75331;-83
2023/01/13 19:18:50;;;;;;;;;;;;;;;-3.71;100.00;101609.08;108318;1267;69854;-83
2023/01/13 19:21:38;;;;;;;20.00;8.80;;;;;;;-3.66;100.00;101606.77;108150;1266;303984;-84
2023/01/13 19:24:26;;;;;;;15.70;7.20;;;;;;;-3.60;100.00;101595.61;108404;1266;61823;-83
2023/01/13 19:27:14;;;;;;;16.00;6.70;;;;;;;-3.55;100.00;101595.30;108382;1270;62500;-83
2023/01/13 19:30:02;;;;;;;16.80;6.30;;;;;;;-3.51;100.00;101588.79;108407;1264;74448;-84
2023/01/13 19:32:50;;;;;;;16.10;5.80;;;;;;;-3.44;100.00;101588.66;108264;1267;69901;-82
2023/01/13 19:35:38;;;;;;;12.10;6.30;;;;;;;-3.40;100.00;101592.81;108368;1267;73849;-80
2023/01/13 19:38:26;;;;;;;15.40;6.60;;;;;;;-3.35;100.00;101595.17;108419;1267;60605;-78
2023/01/13 19:45:25;;;;;;;16.20;5.70;;;;;;;-3.32;100.00;101596.43;108472;1266;62551;-79
2023/01/13 19:47:27;;;;;;;11.80;6.10;;;;;;;-3.20;100.00;101599.83;108960;1256;72151;-82
2023/01/13 19:50:15;;;;;;;20.70;6.30;;;;;;;-3.17;100.00;101593.41;108870;1258;73938;-81
2023/01/13 19:53:02;;;;;;;16.40;6.60;;;;;;;-3.16;100.00;101588.16;108882;1257;61752;-81
2023/01/13 19:55:50;;;;;;;13.50;5.80;;;;;;;-3.13;100.00;101586.58;108900;1257;62596;-82
2023/01/13 19:58:37;;;;;;;14.50;6.20;;;;;;;-3.12;100.00;101582.27;108876;1257;74069;-81
2023/01/13 20:01:30;;;;;;;17.00;6.80;;;;;;;-3.12;100.00;101577.89;108901;1258;70843;-81
2023/01/13 20:04:25;;;;;;;16.60;6.00;;;;;;;-3.12;100.00;101583.45;108883;1256;74854;-81
2023/01/13 20:07:13;;;;;;;15.20;6.20;;;;;;;-3.09;100.00;101587.25;108813;1257;62217;-82
2023/01/13 20:10:01;;;;;;;14.50;6.50;;;;;;;-3.06;100.00;101594.99;108730;1258;61365;-82
2023/01/13 20:12:48;;;;;;;15.30;6.50;;;;;;;-3.05;100.00;101601.09;108797;1258;73788;-81
2023/01/13 20:15:37;;;;;;;18.10;6.70;;;;;;;-3.01;100.00;101598.05;108734;1257;70872;-81
2023/01/13 20:18:24;;;;;;;14.30;6.40;;;;;;;-3.00;100.00;101596.47;108820;1257;75107;-80
2023/01/13 20:21:12;;;;;;;11.80;5.60;;;;;;;-2.98;100.00;101602.91;108799;1257;61888;-81
2023/01/13 20:23:59;;;;;;;18.80;6.00;;;;;;;-2.93;100.00;101599.52;108796;1257;60931;-81
2023/01/13 20:26:47;;;;;;;12.00;5.50;;;;;;;-2.91;100.00;101597.18;108784;1257;74046;-81
2023/01/13 20:29:34;;;;;;;13.40;5.20;;;;;;;-2.92;100.00;101588.02;108834;1257;68486;-81
2023/01/13 20:32:22;;;;;;;11.40;5.10;;;;;;;-2.92;100.00;101586.20;108800;1257;73791;-81
2023/01/13 20:35:11;;;;;;;10.50;5.30;;;;;;;-2.94;100.00;101590.17;108833;1258;60469;-82
2023/01/13 20:37:58;;;;;;;11.70;5.50;;;;;;;-2.95;100.00;101590.44;108795;1258;62511;-80
2023/01/13 20:40:46;;;;;;;11.60;5.90;;;;;;;-2.93;100.00;101584.73;108802;1259;73331;-80
2023/01/13 20:43:33;;;;;;;13.00;4.70;;;;;;;-2.91;100.00;101585.75;108809;1257;69067;-81
2023/01/13 20:46:21;;;;;;;14.60;5.80;;;;;;;-2.92;100.00;101587.80;108807;1259;75286;-81
2023/01/13 20:49:09;;;;;;;13.80;5.50;;;;;;;-2.93;100.00;101582.90;108799;1257;61802;-81
2023/01/13 20:51:57;;;;;;;13.40;5.30;;;;;;;-2.92;100.00;101584.09;108770;1257;60052;-81
2023/01/13 20:54:44;;;;;;;13.40;5.00;;;;;;;-2.92;100.00;101580.48;108740;1260;73798;-82
2023/01/13 20:57:32;;;;;;;14.40;5.90;;;;;;;-2.92;100.00;101581.52;108856;1257;70829;-80
2023/01/13 21:00:20;;;;;;;12.80;5.00;;;;;;;-2.94;100.00;101586.11;108794;1257;73817;-81
2023/01/13 21:03:07;;;;;;;13.70;5.00;;;;;;;-2.96;100.00;101582.69;108808;1257;62080;-81
2023/01/13 21:05:58;;;;;;;14.50;5.70;;;;;;;-2.92;100.00;101575.48;108867;1256;62966;-81
2023/01/13 21:08:46;;;;;;;13.90;5.40;;;;;;;-2.87;100.00;101573.39;108754;1257;73449;-81
2023/01/13 21:21:10;;;;;;;13.60;5.60;;;;;;;-2.78;100.00;101584.02;108873;1257;62754;-82
2023/01/13 21:23:57;;;;;;;12.50;4.90;;;;;;;-2.80;100.00;101580.81;108829;1257;75242;-81
2023/01/13 21:26:46;;;;;;;12.30;5.40;;;;;;;-2.83;100.00;101578.94;108828;1257;70385;-80
2023/01/13 21:29:35;;;;;;;14.90;5.50;;;;;;;-2.82;100.00;101578.37;108670;1257;73669;-81
2023/01/13 21:32:23;;;;;;;17.40;5.40;;;;;;;-2.79;100.00;101577.81;108818;1257;62891;-82
2023/01/13 21:35:10;;;;;;;17.90;6.20;;;;;;;-2.75;100.00;101581.67;108824;1257;62807;-80
2023/01/13 21:37:58;;;;;;;10.50;4.50;;;;;;;-2.75;100.00;101577.61;108830;1257;75793;-81
2023/01/13 21:40:55;;;;;;;12.70;5.30;;;;;;;-2.78;100.00;101581.09;108858;1259;69623;-81
2023/01/13 21:49:54;;;;;;;14.80;5.90;;;;;;;-2.82;100.00;101572.29;108873;1256;62911;-82
2023/01/13 21:52:42;;;;;;;21.50;6.00;;;;;;;-2.84;100.00;101576.41;108891;1256;74001;-82
2023/01/13 21:55:30;;;;;;;12.10;5.40;;;;;;;-2.86;100.00;101570.95;108870;1257;71531;-82
